Time;durP1;ratioP1;P1;durP2;ratioP2;P2;SDS_P1;SDS_P2;PMS_P1;PMS_P2;Temp;Humidity;BMP_temperature;BMP_pressure;BME280_temperature;BME280_humidity;BME280_pressure;Samples;Min_cycle;Max_cycle;Signal;HPM_P1;HPM_P2
2022/08/27 00:06:21;;;;;;;5.90;5.27;;;27.30;54.30;;;;;;5949580;24;20359;-86
2022/08/27 00:09:31;;;;;;;5.97;4.80;;;27.30;54.50;;;;;;5917687;24;20382;-85
2022/08/27 00:12:16;;;;;;;5.47;4.97;;;27.30;54.60;;;;;;5958091;24;20379;-85
2022/08/27 00:15:03;;;;;;;;;;;;;;;;;;;;;
2022/08/27 00:24:22;;;;;;;6.80;4.90;;;27.30;54.60;;;;;;5921741;24;20413;-84
2022/08/27 00:33:33;;;;;;;5.00;4.50;;;27.20;54.60;;;;;;5977249;23;20418;-86
2022/08/27 00:36:27;;;;;;;;;;;;;;;;;;;;;
2022/08/27 00:39:10;;;;;;;5.83;5.07;;;27.20;54.60;;;;;;5977248;24;20394;-86
2022/08/27 00:48:46;;;;;;;4.23;3.83;;;27.30;54.60;;;;;;5948188;24;20464;-86
2022/08/27 00:51:26;;;;;;;5.63;4.27;;;27.20;54.70;;;;;;5947316;24;20462;-86
2022/08/27 00:54:07;;;;;;;6.00;5.40;;;27.20;54.60;;;;;;5949164;24;20410;-86
2022/08/27 01:03:05;;;;;;;5.80;4.40;;;27.20;54.70;;;;;;5949101;24;20408;-86
2022/08/27 01:06:22;;;;;;;6.23;4.90;;;27.20;54.60;;;;;;5959605;23;20407;-86
2022/08/27 01:15:57;;;;;;;5.50;4.93;;;27.20;54.80;;;;;;6032888;23;20404;-87
2022/08/27 01:19:34;;;;;;;4.80;4.40;;;27.20;54.90;;;;;;6031464;23;20384;-84
2022/08/27 01:22:43;;;;;;;4.50;4.10;;;27.10;54.80;;;;;;6014887;23;20377;-84
2022/08/27 01:25:39;;;;;;;4.83;4.03;;;27.10;54.70;;;;;;5995372;23;20410;-84
2022/08/27 01:28:10;;;;;;;6.73;4.93;;;27.10;54.70;;;;;;5975974;24;20433;-85
2022/08/27 01:30:45;;;;;;;4.30;3.90;;;27.10;54.60;;;;;;6000602;23;20380;-85
2022/08/27 01:33:19;;;;;;;4.90;3.43;;;27.20;54.30;;;;;;6031951;23;20383;-85
2022/08/27 01:35:54;;;;;;;5.50;5.00;;;27.20;54.70;;;;;;6032996;23;20391;-85
2022/08/27 01:38:26;;;;;;;4.83;4.43;;;27.20;55.30;;;;;;6009960;23;20399;-85
2022/08/27 01:41:03;;;;;;;5.00;4.50;;;27.20;54.70;;;;;;6032434;23;20412;-84
2022/08/27 01:43:41;;;;;;;4.57;4.17;;;27.20;54.70;;;;;;6055858;23;20379;-85
2022/08/27 01:46:26;;;;;;;5.40;4.90;;;27.20;54.60;;;;;;6032645;23;20379;-85
2022/08/27 01:49:02;;;;;;;5.13;4.63;;;27.20;54.60;;;;;;6031753;23;20384;-84
2022/08/27 01:51:41;;;;;;;7.13;5.20;;;27.20;54.60;;;;;;6055595;23;20376;-85
2022/08/27 01:54:25;;;;;;;9.53;4.50;;;27.20;54.60;;;;;;6032306;23;20391;-85
2022/08/27 01:57:08;;;;;;;4.40;4.00;;;27.20;54.50;;;;;;6030902;23;20391;-83
2022/08/27 01:59:49;;;;;;;5.30;4.33;;;27.20;54.50;;;;;;6030922;23;20810;-84
2022/08/27 02:05:28;;;;;;;4.87;4.07;;;27.20;54.50;;;;;;6055811;23;20392;-84
2022/08/27 02:08:08;;;;;;;4.97;4.47;;;27.20;54.50;;;;;;6088047;23;20435;-84
2022/08/27 02:11:04;;;;;;;5.23;4.20;;;27.20;54.50;;;;;;6149019;23;20371;-84
2022/08/27 02:13:40;;;;;;;4.50;4.10;;;27.20;54.80;;;;;;6148590;23;20455;-84
2022/08/27 02:16:41;;;;;;;5.83;3.53;;;27.20;54.40;;;;;;6174161;23;20376;-84
2022/08/27 02:19:26;;;;;;;3.90;3.60;;;27.20;54.40;;;;;;6149714;23;20388;-84
2022/08/27 02:22:09;;;;;;;4.23;3.83;;;27.20;54.30;;;;;;6133221;23;20383;-84
2022/08/27 02:24:43;;;;;;;6.40;4.30;;;27.20;54.30;;;;;;6148824;23;20379;-84
2022/08/27 02:27:39;;;;;;;4.37;3.97;;;27.30;54.40;;;;;;6148049;23;20431;-84
2022/08/27 02:30:32;;;;;;;5.00;4.60;;;27.30;54.40;;;;;;6148928;23;20384;-84
2022/08/27 02:33:32;;;;;;;;;;;;;;;;;;;;;
2022/08/27 02:36:07;;;;;;;4.50;4.10;;;27.20;54.30;;;;;;6142793;23;20384;-84
2022/08/27 02:38:50;;;;;;;7.30;4.67;;;27.20;54.30;;;;;;6133251;23;20459;-84
2022/08/27 02:41:35;;;;;;;4.43;4.03;;;27.30;54.30;;;;;;6148988;23;20404;-84
2022/08/27 02:44:12;;;;;;;4.80;4.40;;;27.30;54.40;;;;;;6174585;23;20382;-84
2022/08/27 02:46:56;;;;;;;4.50;4.10;;;27.20;54.30;;;;;;6149266;23;20383;-84
2022/08/27 02:55:53;;;;;;;5.17;4.33;;;27.30;54.30;;;;;;6088245;23;20346;-84
2022/08/27 02:58:25;;;;;;;4.17;3.87;;;27.30;54.40;;;;;;6064117;23;20386;-84
2022/08/27 03:01:21;;;;;;;6.00;4.90;;;27.30;54.50;;;;;;6086715;23;20483;-84
2022/08/27 03:03:48;;;;;;;5.13;4.63;;;27.30;54.40;;;;;;6064392;23;20396;-85
2022/08/27 03:06:17;;;;;;;5.73;4.70;;;27.20;54.50;;;;;;6088146;23;20703;-84
2022/08/27 03:08:59;;;;;;;5.10;4.60;;;27.30;54.60;;;;;;6087923;23;20417;-84
2022/08/27 03:11:32;;;;;;;6.80;4.83;;;27.30;54.60;;;;;;6064150;23;20382;-84
2022/08/27 03:14:05;;;;;;;5.50;4.67;;;27.30;54.60;;;;;;6063450;23;20538;-83
2022/08/27 03:16:44;;;;;;;4.60;4.20;;;27.30;54.60;;;;;;6063424;23;20386;-83
2022/08/27 03:19:16;;;;;;;4.90;4.50;;;27.30;54.60;;;;;;6086680;23;20386;-83
2022/08/27 03:22:01;;;;;;;4.73;4.33;;;27.30;54.60;;;;;;6087023;23;20483;-84
2022/08/27 03:24:35;;;;;;;4.40;4.00;;;27.30;54.60;;;;;;6086819;23;20375;-84
2022/08/27 03:27:12;;;;;;;9.80;4.57;;;27.30;54.60;;;;;;6087475;23;20456;-84
2022/08/27 03:29:50;;;;;;;4.33;3.93;;;27.30;54.60;;;;;;6111011;23;20376;-83
2022/08/27 03:32:28;;;;;;;4.90;4.40;;;27.30;54.60;;;;;;6152964;23;20387;-84
2022/08/27 03:35:03;;;;;;;4.97;4.50;;;27.30;54.60;;;;;;6178111;23;20379;-84
2022/08/27 03:41:15;;;;;;;5.10;4.60;;;27.30;54.60;;;;;;6059760;23;20450;-84
2022/08/27 03:43:58;;;;;;;5.20;4.70;;;27.30;54.60;;;;;;6036258;23;20379;-83
2022/08/27 03:49:20;;;;;;;4.33;3.93;;;27.20;54.60;;;;;;6057705;23;20379;-84
2022/08/27 03:52:13;;;;;;;4.07;3.77;;;27.20;54.60;;;;;;6036836;23;20370;-83
2022/08/27 03:55:04;;;;;;;4.80;4.40;;;27.30;54.60;;;;;;6036647;23;20392;-82
2022/08/27 03:57:35;;;;;;;4.80;4.17;;;27.20;54.60;;;;;;6060404;23;20394;-83
2022/08/27 04:00:16;;;;;;;4.23;3.83;;;27.20;54.60;;;;;;6060095;23;20466;-83
2022/08/27 04:03:17;;;;;;;3.67;3.37;;;27.20;54.60;;;;;;6058892;23;20376;-82
2022/08/27 04:06:00;;;;;;;4.53;4.10;;;27.20;54.60;;;;;;6058024;23;20399;-83
2022/08/27 04:08:39;;;;;;;4.60;4.17;;;27.20;54.60;;;;;;6035419;23;20532;-83
2022/08/27 04:11:20;;;;;;;5.03;4.63;;;27.20;54.60;;;;;;6058434;23;20380;-83
2022/08/27 04:16:49;;;;;;;4.03;3.70;;;27.20;55.10;;;;;;6068555;23;20367;-83
2022/08/27 04:25:42;;;;;;;5.73;4.00;;;27.20;54.50;;;;;;6058687;23;20429;-84
2022/08/27 04:28:41;;;;;;;4.40;4.00;;;27.20;54.50;;;;;;6057754;23;20445;-84
2022/08/27 04:31:14;;;;;;;6.77;5.00;;;27.20;54.60;;;;;;6135496;23;20380;-84
2022/08/27 04:33:54;;;;;;;5.70;4.00;;;27.20;54.60;;;;;;6151456;23;20438;-84
2022/08/27 04:36:30;;;;;;;4.73;4.20;;;27.20;54.60;;;;;;6150755;23;20378;-84
2022/08/27 04:39:11;;;;;;;4.30;3.77;;;27.20;54.60;;;;;;6150050;23;20386;-83
2022/08/27 04:44:40;;;;;;;6.20;5.37;;;27.20;54.60;;;;;;6176691;23;20383;-84
2022/08/27 04:47:13;;;;;;;5.83;4.53;;;27.20;54.60;;;;;;6146000;23;20444;-84
2022/08/27 04:49:44;;;;;;;5.10;4.60;;;27.20;54.60;;;;;;6149885;23;20449;-83
2022/08/27 04:52:25;;;;;;;4.67;4.17;;;27.20;54.60;;;;;;6149422;23;20376;-83
2022/08/27 04:55:07;;;;;;;4.70;4.30;;;27.20;54.60;;;;;;6176616;23;20364;-83
2022/08/27 04:57:49;;;;;;;;;;;;;;;;;;;;;
2022/08/27 05:00:35;;;;;;;4.17;3.77;;;27.20;54.60;;;;;;6162031;23;20649;-83
2022/08/27 05:03:15;;;;;;;5.10;4.37;;;27.20;54.60;;;;;;6150291;23;20813;-83
2022/08/27 05:05:57;;;;;;;4.70;4.20;;;27.20;54.60;;;;;;6149506;23;20483;-83
2022/08/27 05:08:38;;;;;;;4.80;4.40;;;27.20;54.40;;;;;;6177014;23;20418;-84
2022/08/27 05:11:33;;;;;;;;;;;;;;;;;;;;;
2022/08/27 05:14:19;;;;;;;5.40;4.60;;;27.20;54.60;;;;;;6175533;23;20376;-84
2022/08/27 05:17:02;;;;;;;4.70;4.30;;;27.20;54.50;;;;;;6148720;23;20693;-84
2022/08/27 05:19:46;;;;;;;4.20;3.70;;;27.20;54.50;;;;;;6150099;23;20376;-84
2022/08/27 05:22:27;;;;;;;4.47;3.77;;;27.20;54.50;;;;;;6150427;23;20802;-84
2022/08/27 05:25:17;;;;;;;4.80;3.93;;;27.20;54.50;;;;;;6149481;23;20376;-83
2022/08/27 05:27:50;;;;;;;3.73;3.43;;;27.20;54.50;;;;;;6127333;23;20428;-83
2022/08/27 05:30:31;;;;;;;4.07;3.77;;;27.20;54.50;;;;;;6148914;23;20376;-84
2022/08/27 05:33:10;;;;;;;4.27;3.97;;;27.20;54.40;;;;;;6149122;23;20387;-84
2022/08/27 05:35:46;;;;;;;3.80;3.50;;;27.20;54.40;;;;;;6175306;23;20375;-84
2022/08/27 05:38:27;;;;;;;4.53;4.13;;;27.20;54.50;;;;;;6149437;23;20407;-84
2022/08/27 05:41:10;;;;;;;4.37;3.93;;;27.20;54.40;;;;;;6149597;23;20390;-84
2022/08/27 05:43:52;;;;;;;4.40;4.00;;;27.20;54.40;;;;;;6148088;23;20380;-84
2022/08/27 05:46:30;;;;;;;4.13;3.13;;;27.20;54.50;;;;;;6148836;23;20388;-84
2022/08/27 05:49:22;;;;;;;4.07;3.67;;;27.20;54.50;;;;;;6150193;23;20384;-84
2022/08/27 05:51:59;;;;;;;4.80;4.40;;;27.20;54.40;;;;;;6150149;23;20364;-84
2022/08/27 05:54:30;;;;;;;4.73;4.20;;;27.20;54.50;;;;;;6149508;23;20376;-84
2022/08/27 05:57:14;;;;;;;3.90;3.60;;;27.20;54.50;;;;;;6149846;23;20387;-84
2022/08/27 06:03:02;;;;;;;4.97;4.47;;;27.20;54.50;;;;;;6174978;23;20399;-84
2022/08/27 06:09:02;;;;;;;4.37;3.97;;;27.20;54.50;;;;;;6152037;23;20428;-84
2022/08/27 06:15:43;;;;;;;4.13;3.83;;;27.20;54.60;;;;;;6175361;23;20372;-84
2022/08/27 06:18:30;;;;;;;6.07;5.50;;;27.20;54.60;;;;;;6148693;23;20400;-84
2022/08/27 06:21:46;;;;;;;5.50;4.73;;;27.20;54.70;;;;;;6149647;23;20415;-84
2022/08/27 06:31:53;;;;;;;5.10;4.60;;;27.10;54.70;;;;;;6163722;23;20372;-84
2022/08/27 06:34:46;;;;;;;4.50;4.00;;;27.20;54.70;;;;;;6083723;23;20382;-84
2022/08/27 06:37:13;;;;;;;4.40;4.00;;;27.10;54.70;;;;;;6062017;23;20643;-84
2022/08/27 06:43:25;;;;;;;4.90;4.50;;;27.20;54.70;;;;;;5917563;24;20421;-83
2022/08/27 06:46:24;;;;;;;4.80;4.40;;;27.20;54.70;;;;;;5917391;24;20422;-84
2022/08/27 06:49:06;;;;;;;5.30;4.80;;;27.20;54.80;;;;;;5918328;24;20458;-84
2022/08/27 06:51:57;;;;;;;4.93;4.30;;;27.10;54.70;;;;;;5889679;24;20388;-84
2022/08/27 06:54:32;;;;;;;5.10;4.70;;;27.20;54.70;;;;;;5915408;24;20677;-83
2022/08/27 06:57:34;;;;;;;6.07;4.20;;;27.20;54.80;;;;;;5917727;24;20376;-84
2022/08/27 07:00:10;;;;;;;5.17;4.60;;;27.20;54.80;;;;;;5916702;24;20388;-84
2022/08/27 07:03:20;;;;;;;4.93;4.50;;;27.20;54.80;;;;;;5915347;24;20858;-83
2022/08/27 07:06:14;;;;;;;4.77;4.37;;;27.20;54.70;;;;;;5893604;24;20396;-84
2022/08/27 07:12:09;;;;;;;4.90;4.40;;;27.20;54.70;;;;;;5999124;24;20422;-84
2022/08/27 07:15:16;;;;;;;4.33;4.03;;;27.20;54.90;;;;;;6124753;23;20372;-83
2022/08/27 07:21:02;;;;;;;4.90;4.30;;;27.20;55.00;;;;;;6154066;23;20356;-83
2022/08/27 07:24:08;;;;;;;;;;;;;;;;;;;;;
2022/08/27 07:26:53;;;;;;;;;;;;;;;;;;;;;
2022/08/27 07:29:58;;;;;;;4.70;3.70;;;27.10;55.00;;;;;;6167738;23;20368;-83
2022/08/27 07:32:46;;;;;;;4.10;3.70;;;27.10;55.00;;;;;;6114159;23;20445;-84
2022/08/27 07:35:45;;;;;;;5.30;4.80;;;27.10;55.00;;;;;;6149318;23;20444;-84
2022/08/27 07:39:00;;;;;;;4.17;3.77;;;27.10;55.00;;;;;;6171829;23;20380;-84
2022/08/27 07:44:46;;;;;;;3.80;3.50;;;27.10;54.90;;;;;;6028952;23;20423;-84
2022/08/27 07:47:17;;;;;;;3.90;3.50;;;27.10;54.90;;;;;;6004417;23;20429;-84
2022/08/27 07:49:50;;;;;;;4.40;4.00;;;27.10;54.90;;;;;;6005419;23;20387;-84
2022/08/27 07:52:43;;;;;;;4.23;3.83;;;27.10;54.90;;;;;;6005599;23;20392;-83
2022/08/27 07:55:18;;;;;;;3.93;3.40;;;27.20;54.90;;;;;;6005394;23;20404;-84
2022/08/27 07:58:14;;;;;;;;;;;;;;;;;;;;;
2022/08/27 08:01:18;;;;;;;3.80;3.50;;;27.20;54.80;;;;;;6020083;23;20384;-83
2022/08/27 08:03:52;;;;;;;4.10;3.70;;;27.20;54.80;;;;;;6005016;23;20388;-85
2022/08/27 08:06:41;;;;;;;;;;;;;;;;;;;;;
2022/08/27 08:09:23;;;;;;;4.40;3.80;;;27.20;54.80;;;;;;6028519;23;20377;-85
2022/08/27 08:12:33;;;;;;;4.60;3.60;;;27.20;54.80;;;;;;6004405;23;20400;-84
2022/08/27 08:21:57;;;;;;;3.87;3.33;;;27.20;54.80;;;;;;5972937;23;20423;-84
2022/08/27 08:24:35;;;;;;;3.70;3.40;;;27.20;54.80;;;;;;5972503;24;20383;-84
2022/08/27 08:27:31;;;;;;;4.13;3.13;;;27.20;54.90;;;;;;5970951;24;20436;-84
2022/08/27 08:30:23;;;;;;;3.40;2.80;;;27.20;55.00;;;;;;5951180;24;20390;-87
2022/08/27 08:36:47;;;;;;;3.50;3.20;;;27.20;55.00;;;;;;5976356;24;20431;-87
2022/08/27 08:39:37;;;;;;;3.70;3.40;;;27.20;55.00;;;;;;5928511;24;20833;-84
2022/08/27 08:45:50;;;;;;;3.07;2.87;;;27.20;54.90;;;;;;5972066;24;20372;-84
2022/08/27 08:48:28;;;;;;;2.97;2.77;;;27.20;55.00;;;;;;5948954;24;20659;-84
2022/08/27 08:51:58;;;;;;;;;;;;;;;;;;;;;
2022/08/27 08:55:00;;;;;;;2.93;2.63;;;27.20;55.10;;;;;;5993466;23;20390;-84
2022/08/27 08:58:08;;;;;;;3.37;2.87;;;27.20;55.10;;;;;;6033316;23;20383;-85
2022/08/27 09:07:19;;;;;;;2.80;2.60;;;27.20;55.00;;;;;;5971089;24;20408;-84
2022/08/27 09:10:27;;;;;;;;;;;;;;;;;;;;;
2022/08/27 09:16:02;;;;;;;2.67;2.43;;;27.20;55.00;;;;;;5971022;24;20445;-84
2022/08/27 09:18:47;;;;;;;3.10;2.80;;;27.20;55.00;;;;;;5970523;24;20358;-83
2022/08/27 09:21:48;;;;;;;3.00;2.60;;;27.20;55.00;;;;;;5946623;24;20414;-84
2022/08/27 09:24:57;;;;;;;2.50;2.30;;;27.20;55.00;;;;;;5971008;24;20398;-83
2022/08/27 09:31:01;;;;;;;1.97;1.77;;;27.20;54.90;;;;;;5971726;24;20362;-84
2022/08/27 09:33:42;;;;;;;3.27;2.97;;;27.20;55.00;;;;;;5945894;24;20383;-85
2022/08/27 09:36:44;;;;;;;;;;;;;;;;;;;;;
2022/08/27 09:40:17;;;;;;;3.13;2.83;;;27.20;55.00;;;;;;5969358;24;20394;-84
2022/08/27 09:49:59;;;;;;;4.90;2.30;;;27.20;55.00;;;;;;5971483;24;20366;-84
2022/08/27 09:56:44;;;;;;;3.67;2.60;;;27.20;55.20;;;;;;5971809;24;20346;-83
2022/08/27 09:59:33;;;;;;;2.77;2.57;;;27.20;55.10;;;;;;5947317;24;20443;-83
2022/08/27 10:02:23;;;;;;;2.93;2.73;;;27.20;55.20;;;;;;5969755;24;20393;-84
2022/08/27 10:04:57;;;;;;;2.80;2.60;;;27.20;55.20;;;;;;5971090;24;20375;-83
2022/08/27 10:08:17;;;;;;;3.07;2.77;;;27.20;55.00;;;;;;5949233;24;20497;-83
2022/08/27 10:18:06;;;;;;;4.20;3.03;;;27.30;55.30;;;;;;5987100;23;20375;-86
2022/08/27 10:21:41;;;;;;;;;;;;;;;;;;;;;
2022/08/27 10:29:26;;;;;;;3.93;3.50;;;27.20;55.30;;;;;;6057240;23;20450;-85
2022/08/27 10:31:49;;;;;;;3.50;3.20;;;27.20;55.50;;;;;;5996658;24;20388;-87
2022/08/27 10:41:45;;;;;;;4.80;3.77;;;27.20;55.70;;;;;;6059217;23;20362;-87
2022/08/27 10:48:16;;;;;;;8.23;4.20;;;27.20;55.70;;;;;;6088269;23;20490;-87
2022/08/27 11:01:35;;;;;;;4.57;3.90;;;27.30;55.70;;;;;;6047537;23;20419;-87
2022/08/27 11:18:36;;;;;;;4.37;3.97;;;27.30;55.60;;;;;;5949476;24;20400;-87
2022/08/27 11:21:43;;;;;;;;;;;;;;;;;;;;;
2022/08/27 11:35:22;;;;;;;;;;;;;;;;;;;;;
2022/08/27 11:46:27;;;;;;;;;;;;;;;;;;;;;
2022/08/27 11:55:51;;;;;;;3.90;3.60;;;27.30;55.60;;;;;;5917409;24;20360;-84
2022/08/27 11:58:34;;;;;;;3.80;3.40;;;27.30;55.60;;;;;;5917736;24;20388;-84
2022/08/27 12:01:44;;;;;;;3.97;3.40;;;27.30;55.50;;;;;;5916683;24;20384;-84
2022/08/27 12:04:35;;;;;;;3.80;3.50;;;27.30;55.50;;;;;;5896412;24;20478;-83
2022/08/27 12:07:49;;;;;;;;;;;;;;;;;;;;;
2022/08/27 12:17:36;;;;;;;3.97;3.60;;;27.40;55.50;;;;;;5841371;24;20370;-86
2022/08/27 12:20:47;;;;;;;3.40;3.10;;;27.30;55.40;;;;;;5840367;24;20375;-85
2022/08/27 12:30:55;;;;;;;;;;;;;;;;;;;;;
2022/08/27 13:01:39;;;;;;;4.03;3.10;;;27.40;55.30;;;;;;5836679;24;20644;-85
2022/08/27 13:04:25;;;;;;;2.90;2.70;;;27.40;55.30;;;;;;5824878;24;20394;-84
2022/08/27 13:07:08;;;;;;;3.27;2.97;;;27.30;55.30;;;;;;5832140;24;20392;-84
2022/08/27 13:13:36;;;;;;;3.13;2.83;;;27.40;55.40;;;;;;5836164;24;20402;-85
2022/08/27 13:16:23;;;;;;;3.37;2.87;;;27.30;55.30;;;;;;5805040;24;20385;-86
2022/08/27 13:19:19;;;;;;;3.10;2.80;;;27.40;55.40;;;;;;5789497;24;20396;-88
2022/08/27 13:22:20;;;;;;;3.07;2.80;;;27.40;55.50;;;;;;5812456;24;20437;-87
2022/08/27 13:25:05;;;;;;;3.00;2.70;;;27.40;55.30;;;;;;5812554;24;20471;-88
2022/08/27 13:28:16;;;;;;;;;;;;;;;;;;;;;
2022/08/27 13:31:18;;;;;;;3.40;3.10;;;27.40;55.20;;;;;;5811980;24;20388;-87
2022/08/27 13:34:05;;;;;;;2.97;2.67;;;27.40;55.20;;;;;;5834715;24;20380;-87
2022/08/27 13:43:34;;;;;;;2.87;2.67;;;27.40;55.30;;;;;;5922008;24;20365;-87
2022/08/27 13:46:34;;;;;;;2.77;2.57;;;27.40;55.30;;;;;;5914971;23;20444;-87
2022/08/27 14:19:29;;;;;;;3.40;3.10;;;27.40;55.30;;;;;;5975636;23;20374;-86
2022/08/27 14:26:05;;;;;;;;;;;;;;;;;;;;;
2022/08/27 14:32:17;;;;;;;3.50;3.20;;;27.40;55.60;;;;;;5976890;23;20389;-85
2022/08/27 14:35:07;;;;;;;;;;;;;;;;;;;;;
2022/08/27 14:38:09;;;;;;;;;;;;;;;;;;;;;
2022/08/27 14:41:17;;;;;;;3.77;3.47;;;27.40;55.70;;;;;;5974970;24;20385;-85
2022/08/27 15:04:04;;;;;;;;;;;;;;;;;;;;;
2022/08/27 15:30:59;;;;;;;4.87;3.90;;;27.30;55.70;;;;;;5867683;24;20369;-85
2022/08/27 15:33:48;;;;;;;3.63;3.07;;;27.30;56.00;;;;;;5859958;24;20389;-85
2022/08/27 15:36:43;;;;;;;;;;;;;;;;;;;;;
2022/08/27 15:40:03;;;;;;;4.40;3.80;;;27.30;55.90;;;;;;5811849;24;20384;-85
2022/08/27 15:49:39;;;;;;;3.57;3.07;;;27.40;56.00;;;;;;5815157;24;20397;-86
2022/08/27 15:52:18;;;;;;;4.70;4.30;;;27.40;56.10;;;;;;5810558;24;20380;-85
2022/08/27 15:55:15;;;;;;;;;;;;;;;;;;;;;
2022/08/27 16:01:48;;;;;;;;;;;;;;;;;;;;;
2022/08/27 16:11:41;;;;;;;3.77;3.47;;;27.40;56.00;;;;;;5922793;24;20781;-86
2022/08/27 16:14:59;;;;;;;;;;;;;;;;;;;;;
2022/08/27 16:25:29;;;;;;;;;;;;;;;;;;;;;
2022/08/27 16:31:41;;;;;;;3.63;3.33;;;27.40;55.80;;;;;;5895046;24;20485;-85
2022/08/27 16:44:55;;;;;;;3.80;3.50;;;27.40;56.10;;;;;;5895503;24;20373;-85
2022/08/27 16:51:11;;;;;;;5.13;4.03;;;27.40;56.10;;;;;;5897559;24;20369;-85
2022/08/27 17:00:43;;;;;;;5.20;4.70;;;27.40;56.10;;;;;;5841181;24;20362;-86
2022/08/27 17:16:53;;;;;;;4.90;4.50;;;27.40;56.10;;;;;;5950412;23;20714;-85
2022/08/27 17:23:30;;;;;;;4.67;4.17;;;27.40;56.00;;;;;;5948774;24;20455;-86
2022/08/27 17:29:36;;;;;;;4.83;4.23;;;27.40;56.10;;;;;;5948791;24;20378;-86
2022/08/27 17:32:44;;;;;;;4.20;3.80;;;27.40;56.20;;;;;;5922395;24;20380;-85
2022/08/27 17:39:06;;;;;;;3.90;3.60;;;27.40;56.10;;;;;;5976406;24;20456;-85
2022/08/27 17:45:42;;;;;;;4.33;3.70;;;27.40;56.00;;;;;;6060824;23;20376;-86
2022/08/27 17:55:30;;;;;;;;;;;;;;;;;;;;;
2022/08/27 17:58:21;;;;;;;4.23;3.90;;;27.40;56.10;;;;;;5890415;24;20384;-84
2022/08/27 18:07:06;;;;;;;4.30;3.90;;;27.40;56.10;;;;;;5862862;24;20416;-84
2022/08/27 18:17:06;;;;;;;;;;;;;;;;;;;;;
2022/08/27 18:27:11;;;;;;;4.57;4.27;;;27.40;56.10;;;;;;5937703;24;20442;-84
2022/08/27 18:33:52;;;;;;;5.03;4.37;;;27.40;56.20;;;;;;5862546;24;20405;-85
2022/08/27 18:36:38;;;;;;;4.07;3.77;;;27.40;56.20;;;;;;5949094;24;20378;-84
2022/08/27 18:42:48;;;;;;;4.73;4.07;;;27.40;56.20;;;;;;5996500;24;20725;-84
2022/08/27 18:49:13;;;;;;;4.70;4.30;;;27.40;56.10;;;;;;5999193;23;20702;-84
2022/08/27 18:55:27;;;;;;;4.63;4.23;;;27.40;56.20;;;;;;5915462;24;20391;-85
2022/08/27 18:58:37;;;;;;;6.23;5.63;;;27.30;56.20;;;;;;5939786;23;20440;-84
2022/08/27 19:08:28;;;;;;;5.50;5.00;;;27.40;56.30;;;;;;6025316;23;20431;-83
2022/08/27 19:11:07;;;;;;;5.50;5.00;;;27.40;56.30;;;;;;6017094;23;20469;-83
2022/08/27 19:18:12;;;;;;;;;;;;;;;;;;;;;
2022/08/27 19:24:08;;;;;;;5.63;5.07;;;27.40;56.20;;;;;;5939691;24;20502;-84
2022/08/27 19:30:21;;;;;;;4.87;4.47;;;27.40;56.30;;;;;;5985294;24;20438;-84
2022/08/27 19:33:13;;;;;;;5.73;5.20;;;27.40;56.20;;;;;;6000020;24;20469;-84
2022/08/27 19:35:54;;;;;;;5.70;4.57;;;27.40;56.30;;;;;;5993153;24;20394;-83
2022/08/27 19:39:00;;;;;;;4.30;4.00;;;27.40;56.20;;;;;;6000004;24;20686;-84
2022/08/27 19:48:45;;;;;;;5.57;5.07;;;27.40;56.20;;;;;;5945290;24;20487;-84
2022/08/27 19:54:48;;;;;;;6.53;4.93;;;27.30;56.10;;;;;;5914415;24;20363;-83
2022/08/27 20:01:13;;;;;;;6.00;5.53;;;27.30;56.20;;;;;;5903490;24;20398;-83
2022/08/27 20:07:23;;;;;;;5.37;4.87;;;27.30;56.10;;;;;;5918021;24;20459;-84
2022/08/27 20:10:04;;;;;;;;;;;;;;;;;;;;;
2022/08/27 20:12:43;;;;;;;5.60;5.10;;;27.30;56.20;;;;;;5915022;24;20387;-84
2022/08/27 20:15:47;;;;;;;;;;;;;;;;;;;;;
2022/08/27 20:25:41;;;;;;;5.67;5.20;;;27.30;56.20;;;;;;5967513;23;20396;-84
2022/08/27 20:34:59;;;;;;;6.17;5.67;;;27.30;56.20;;;;;;6176231;23;20422;-84
2022/08/27 20:37:34;;;;;;;5.87;5.37;;;27.30;56.20;;;;;;6126821;23;20458;-84
2022/08/27 20:40:19;;;;;;;5.73;5.23;;;27.30;56.20;;;;;;6175981;23;20363;-84
2022/08/27 20:43:02;;;;;;;;;;;;;;;;;;;;;
2022/08/27 20:45:57;;;;;;;5.90;5.40;;;27.30;56.20;;;;;;6176351;23;20356;-84
2022/08/27 20:48:58;;;;;;;;;;;;;;;;;;;;;
2022/08/27 20:51:31;;;;;;;6.23;5.60;;;27.30;56.10;;;;;;6167186;23;20379;-84
2022/08/27 21:01:13;;;;;;;;;;;;;;;;;;;;;
2022/08/27 21:10:17;;;;;;;6.47;5.87;;;27.30;56.10;;;;;;6085445;23;20402;-84
2022/08/27 21:12:52;;;;;;;5.87;5.13;;;27.30;56.10;;;;;;6061229;23;20370;-84
2022/08/27 21:15:35;;;;;;;;;;;;;;;;;;;;;
2022/08/27 21:18:09;;;;;;;6.17;5.67;;;27.30;56.10;;;;;;6058676;23;20443;-84
2022/08/27 21:20:49;;;;;;;7.50;5.73;;;27.30;56.00;;;;;;6037154;23;20470;-84
2022/08/27 21:23:32;;;;;;;6.93;5.77;;;27.30;56.00;;;;;;6061186;23;20375;-84
2022/08/27 21:26:21;;;;;;;5.67;5.17;;;27.30;56.00;;;;;;6061228;23;20438;-84
2022/08/27 21:32:11;;;;;;;5.93;5.43;;;27.30;56.00;;;;;;6085217;23;20363;-84
2022/08/27 21:35:03;;;;;;;6.20;5.70;;;27.30;56.00;;;;;;6084103;23;20379;-84
2022/08/27 21:37:37;;;;;;;6.30;5.70;;;27.30;56.00;;;;;;6061022;23;20423;-84
2022/08/27 21:40:23;;;;;;;5.80;5.37;;;27.30;56.70;;;;;;6039133;23;20410;-84
2022/08/27 21:43:08;;;;;;;;;;;;;;;;;;;;;
2022/08/27 21:45:58;;;;;;;6.03;5.53;;;27.30;56.00;;;;;;6175489;23;20360;-84
2022/08/27 21:48:44;;;;;;;6.10;5.60;;;27.30;56.00;;;;;;6148929;23;20380;-84
2022/08/27 21:51:31;;;;;;;;;;;;;;;;;;;;;
2022/08/27 21:54:23;;;;;;;5.70;5.30;;;27.30;55.90;;;;;;6157068;23;20388;-86
2022/08/27 21:57:19;;;;;;;;;;;;;;;;;;;;;
2022/08/27 22:00:47;;;;;;;;;;;;;;;;;;;;;
2022/08/27 22:06:57;;;;;;;4.80;4.40;;;27.30;56.00;;;;;;6027253;23;20368;-84
2022/08/27 22:13:22;;;;;;;;;;;;;;;;;;;;;
2022/08/27 22:15:58;;;;;;;5.83;5.23;;;27.20;56.00;;;;;;6027051;23;20369;-84
2022/08/27 22:18:55;;;;;;;6.30;5.70;;;27.20;55.90;;;;;;6025389;23;20486;-84
2022/08/27 22:22:01;;;;;;;5.70;5.20;;;27.20;55.90;;;;;;5978851;23;20559;-84
2022/08/27 22:24:47;;;;;;;6.53;5.97;;;27.30;56.00;;;;;;6000208;23;20392;-84
2022/08/27 22:27:39;;;;;;;5.53;5.03;;;27.30;55.90;;;;;;6003356;23;20413;-84
2022/08/27 22:30:13;;;;;;;6.40;5.80;;;27.20;55.80;;;;;;6026424;23;20403;-84
2022/08/27 22:32:53;;;;;;;6.40;5.80;;;27.20;55.80;;;;;;6002913;23;20387;-85
2022/08/27 22:35:43;;;;;;;6.10;5.47;;;27.20;55.80;;;;;;6003867;23;20766;-84
2022/08/27 22:38:27;;;;;;;5.73;4.90;;;27.30;55.80;;;;;;6059747;23;20526;-84
2022/08/27 22:41:30;;;;;;;6.33;5.20;;;27.20;55.80;;;;;;6082789;23;20406;-85
2022/08/27 22:44:42;;;;;;;6.67;4.90;;;27.20;55.80;;;;;;6058883;23;20397;-85
2022/08/27 22:47:25;;;;;;;5.63;5.13;;;27.20;55.80;;;;;;6084106;23;20390;-84
2022/08/27 22:52:59;;;;;;;5.53;4.97;;;27.20;55.80;;;;;;6071509;23;20467;-85
2022/08/27 22:55:58;;;;;;;5.57;5.00;;;27.20;55.80;;;;;;6079953;23;20402;-84
2022/08/27 23:02:04;;;;;;;;;;;;;;;;;;;;;
2022/08/27 23:04:54;;;;;;;6.07;5.47;;;27.20;55.70;;;;;;6027053;23;20373;-84
2022/08/27 23:08:07;;;;;;;;;;;;;;;;;;;;;
2022/08/27 23:10:53;;;;;;;5.60;5.10;;;27.20;55.70;;;;;;6025678;23;20373;-85
2022/08/27 23:13:56;;;;;;;5.60;5.10;;;27.20;55.70;;;;;;6029156;23;20388;-85
2022/08/27 23:16:34;;;;;;;5.53;5.03;;;27.20;55.70;;;;;;6028727;23;20380;-84
2022/08/27 23:19:10;;;;;;;6.30;5.67;;;27.10;55.70;;;;;;6029374;23;20435;-85
2022/08/27 23:21:43;;;;;;;8.50;5.20;;;27.10;55.60;;;;;;6028925;23;20380;-85
2022/08/27 23:28:06;;;;;;;;;;;;;;;;;;;;;
2022/08/27 23:31:08;;;;;;;5.50;5.00;;;27.10;55.70;;;;;;6000599;23;20388;-85
2022/08/27 23:33:52;;;;;;;5.20;4.70;;;27.10;55.70;;;;;;5999975;24;20381;-85
2022/08/27 23:36:22;;;;;;;7.33;6.33;;;27.10;55.70;;;;;;5999649;24;20781;-85
2022/08/27 23:39:25;;;;;;;5.47;5.00;;;27.10;55.70;;;;;;6000223;24;20425;-85
2022/08/27 23:55:12;;;;;;;6.00;5.30;;;27.10;55.70;;;;;;6083755;23;20521;-85
2022/08/27 23:57:58;;;;;;;;;;;;;;;;;;;;;
